sensor_id;sensor_type;location;lat;lon;timestamp;P1;durP1;ratioP1;P2;durP2;ratioP2
70924;SDS011;58577;52.410;13.242;2022-08-01T00:00:33;8.02;;;5.70;;
70924;SDS011;58577;52.410;13.242;2022-08-01T00:03:19;6.47;;;5.28;;
70924;SDS011;58577;52.410;13.242;2022-08-01T00:06:04;9.40;;;5.70;;
70924;SDS011;58577;52.410;13.242;2022-08-01T00:08:50;7.72;;;5.35;;
70924;SDS011;58577;52.410;13.242;2022-08-01T00:11:36;9.02;;;5.75;;
70924;SDS011;58577;52.410;13.242;2022-08-01T00:14:22;6.85;;;5.32;;
70924;SDS011;58577;52.410;13.242;2022-08-01T00:17:08;7.75;;;5.63;;
70924;SDS011;58577;52.410;13.242;2022-08-01T00:19:54;7.90;;;5.88;;
70924;SDS011;58577;52.410;13.242;2022-08-01T00:22:40;8.77;;;5.47;;
70924;SDS011;58577;52.410;13.242;2022-08-01T00:25:26;9.52;;;5.70;;
70924;SDS011;58577;52.410;13.242;2022-08-01T00:28:12;8.88;;;5.90;;
70924;SDS011;58577;52.410;13.242;2022-08-01T00:30:58;8.90;;;5.78;;
70924;SDS011;58577;52.410;13.242;2022-08-01T00:33:44;6.95;;;5.65;;
70924;SDS011;58577;52.410;13.242;2022-08-01T00:36:30;8.82;;;6.65;;
70924;SDS011;58577;52.410;13.242;2022-08-01T00:39:16;8.57;;;5.82;;
70924;SDS011;58577;52.410;13.242;2022-08-01T00:42:11;6.68;;;5.43;;
70924;SDS011;58577;52.410;13.242;2022-08-01T00:44:58;8.48;;;5.57;;
70924;SDS011;58577;52.410;13.242;2022-08-01T00:47:44;6.75;;;5.72;;
70924;SDS011;58577;52.410;13.242;2022-08-01T00:50:30;8.40;;;6.00;;
70924;SDS011;58577;52.410;13.242;2022-08-01T00:53:16;7.93;;;5.80;;
70924;SDS011;58577;52.410;13.242;2022-08-01T00:56:02;9.02;;;6.40;;
70924;SDS011;58577;52.410;13.242;2022-08-01T00:58:48;8.25;;;6.03;;
70924;SDS011;58577;52.410;13.242;2022-08-01T01:01:34;9.02;;;5.90;;
70924;SDS011;58577;52.410;13.242;2022-08-01T01:04:20;9.15;;;6.18;;
70924;SDS011;58577;52.410;13.242;2022-08-01T01:07:09;9.18;;;6.25;;
70924;SDS011;58577;52.410;13.242;2022-08-01T01:13:04;10.43;;;6.45;;
70924;SDS011;58577;52.410;13.242;2022-08-01T01:18:54;9.60;;;6.53;;
70924;SDS011;58577;52.410;13.242;2022-08-01T01:24:44;9.23;;;6.43;;
70924;SDS011;58577;52.410;13.242;2022-08-01T01:31:17;9.43;;;6.55;;
70924;SDS011;58577;52.410;13.242;2022-08-01T01:34:06;8.95;;;6.40;;
70924;SDS011;58577;52.410;13.242;2022-08-01T01:36:54;9.63;;;6.00;;
70924;SDS011;58577;52.410;13.242;2022-08-01T01:39:43;8.98;;;6.25;;
70924;SDS011;58577;52.410;13.242;2022-08-01T01:42:31;8.02;;;6.40;;
70924;SDS011;58577;52.410;13.242;2022-08-01T01:45:18;9.70;;;6.72;;
70924;SDS011;58577;52.410;13.242;2022-08-01T01:48:06;9.05;;;6.10;;
70924;SDS011;58577;52.410;13.242;2022-08-01T01:50:54;7.90;;;6.03;;
70924;SDS011;58577;52.410;13.242;2022-08-01T01:53:42;7.47;;;5.95;;
70924;SDS011;58577;52.410;13.242;2022-08-01T01:56:29;10.90;;;6.30;;
70924;SDS011;58577;52.410;13.242;2022-08-01T01:59:19;9.93;;;6.28;;
70924;SDS011;58577;52.410;13.242;2022-08-01T02:02:07;7.88;;;6.28;;
70924;SDS011;58577;52.410;13.242;2022-08-01T02:04:54;10.02;;;6.80;;
70924;SDS011;58577;52.410;13.242;2022-08-01T02:07:41;8.75;;;6.53;;
70924;SDS011;58577;52.410;13.242;2022-08-01T02:10:28;9.68;;;6.43;;
70924;SDS011;58577;52.410;13.242;2022-08-01T02:13:16;11.05;;;6.72;;
70924;SDS011;58577;52.410;13.242;2022-08-01T02:16:02;9.10;;;7.03;;
70924;SDS011;58577;52.410;13.242;2022-08-01T02:18:49;9.27;;;6.68;;
70924;SDS011;58577;52.410;13.242;2022-08-01T02:21:40;10.60;;;6.93;;
70924;SDS011;58577;52.410;13.242;2022-08-01T02:27:40;9.05;;;6.78;;
70924;SDS011;58577;52.410;13.242;2022-08-01T02:30:42;11.23;;;6.72;;
70924;SDS011;58577;52.410;13.242;2022-08-01T02:33:39;9.05;;;6.82;;
70924;SDS011;58577;52.410;13.242;2022-08-01T02:36:28;9.02;;;6.75;;
70924;SDS011;58577;52.410;13.242;2022-08-01T02:39:18;8.48;;;6.70;;
70924;SDS011;58577;52.410;13.242;2022-08-01T02:42:07;10.02;;;6.93;;
70924;SDS011;58577;52.410;13.242;2022-08-01T02:44:56;11.25;;;7.25;;
70924;SDS011;58577;52.410;13.242;2022-08-01T02:47:43;11.93;;;7.43;;
70924;SDS011;58577;52.410;13.242;2022-08-01T02:50:31;11.82;;;7.25;;
70924;SDS011;58577;52.410;13.242;2022-08-01T02:53:19;11.27;;;7.20;;
70924;SDS011;58577;52.410;13.242;2022-08-01T02:56:07;10.70;;;7.70;;
70924;SDS011;58577;52.410;13.242;2022-08-01T02:58:55;9.63;;;6.75;;
70924;SDS011;58577;52.410;13.242;2022-08-01T03:01:42;10.10;;;7.15;;
70924;SDS011;58577;52.410;13.242;2022-08-01T03:04:30;11.27;;;7.30;;
70924;SDS011;58577;52.410;13.242;2022-08-01T03:07:19;11.37;;;7.40;;
70924;SDS011;58577;52.410;13.242;2022-08-01T03:10:07;9.48;;;7.07;;
70924;SDS011;58577;52.410;13.242;2022-08-01T03:12:55;10.00;;;7.05;;
70924;SDS011;58577;52.410;13.242;2022-08-01T03:15:44;10.53;;;6.73;;
70924;SDS011;58577;52.410;13.242;2022-08-01T03:18:32;10.30;;;6.75;;
70924;SDS011;58577;52.410;13.242;2022-08-01T03:21:20;8.70;;;6.70;;
70924;SDS011;58577;52.410;13.242;2022-08-01T03:24:08;9.13;;;6.78;;
70924;SDS011;58577;52.410;13.242;2022-08-01T03:26:56;9.20;;;6.68;;
70924;SDS011;58577;52.410;13.242;2022-08-01T03:29:43;10.23;;;6.78;;
70924;SDS011;58577;52.410;13.242;2022-08-01T03:32:30;9.95;;;6.70;;
70924;SDS011;58577;52.410;13.242;2022-08-01T03:35:17;10.85;;;6.38;;
70924;SDS011;58577;52.410;13.242;2022-08-01T03:38:03;9.85;;;6.63;;
70924;SDS011;58577;52.410;13.242;2022-08-01T03:40:55;10.48;;;6.55;;
70924;SDS011;58577;52.410;13.242;2022-08-01T03:43:45;9.98;;;6.07;;
70924;SDS011;58577;52.410;13.242;2022-08-01T03:46:39;10.00;;;6.82;;
70924;SDS011;58577;52.410;13.242;2022-08-01T03:49:30;9.50;;;6.10;;
70924;SDS011;58577;52.410;13.242;2022-08-01T03:52:17;9.38;;;6.13;;
70924;SDS011;58577;52.410;13.242;2022-08-01T03:55:04;8.55;;;5.75;;
70924;SDS011;58577;52.410;13.242;2022-08-01T03:57:55;11.15;;;6.20;;
70924;SDS011;58577;52.410;13.242;2022-08-01T04:00:42;12.43;;;6.88;;
70924;SDS011;58577;52.410;13.242;2022-08-01T04:03:28;11.43;;;6.30;;
70924;SDS011;58577;52.410;13.242;2022-08-01T04:06:14;9.52;;;6.28;;
70924;SDS011;58577;52.410;13.242;2022-08-01T04:09:00;11.18;;;6.47;;
70924;SDS011;58577;52.410;13.242;2022-08-01T04:11:47;10.77;;;6.18;;
70924;SDS011;58577;52.410;13.242;2022-08-01T04:14:33;10.68;;;6.55;;
70924;SDS011;58577;52.410;13.242;2022-08-01T04:17:19;8.35;;;6.00;;
70924;SDS011;58577;52.410;13.242;2022-08-01T04:20:05;11.10;;;6.95;;
70924;SDS011;58577;52.410;13.242;2022-08-01T04:22:51;11.82;;;6.40;;
70924;SDS011;58577;52.410;13.242;2022-08-01T04:25:37;10.82;;;6.40;;
70924;SDS011;58577;52.410;13.242;2022-08-01T04:28:25;9.55;;;6.05;;
70924;SDS011;58577;52.410;13.242;2022-08-01T04:31:11;13.02;;;7.63;;
70924;SDS011;58577;52.410;13.242;2022-08-01T04:33:59;13.57;;;7.88;;
70924;SDS011;58577;52.410;13.242;2022-08-01T04:36:48;12.57;;;7.13;;
70924;SDS011;58577;52.410;13.242;2022-08-01T04:39:37;9.18;;;6.05;;
70924;SDS011;58577;52.410;13.242;2022-08-01T04:42:24;11.27;;;6.38;;
70924;SDS011;58577;52.410;13.242;2022-08-01T04:45:10;10.90;;;6.72;;
70924;SDS011;58577;52.410;13.242;2022-08-01T04:47:57;10.18;;;6.30;;
70924;SDS011;58577;52.410;13.242;2022-08-01T04:50:45;11.65;;;6.68;;
70924;SDS011;58577;52.410;13.242;2022-08-01T04:53:31;14.05;;;8.20;;
70924;SDS011;58577;52.410;13.242;2022-08-01T04:56:18;11.48;;;7.28;;
70924;SDS011;58577;52.410;13.242;2022-08-01T04:59:06;10.30;;;6.68;;
70924;SDS011;58577;52.410;13.242;2022-08-01T05:02:14;13.25;;;7.65;;
70924;SDS011;58577;52.410;13.242;2022-08-01T05:05:04;11.25;;;7.10;;
70924;SDS011;58577;52.410;13.242;2022-08-01T05:07:53;12.57;;;6.88;;
70924;SDS011;58577;52.410;13.242;2022-08-01T05:10:39;10.88;;;6.53;;
70924;SDS011;58577;52.410;13.242;2022-08-01T05:13:24;10.27;;;6.13;;
70924;SDS011;58577;52.410;13.242;2022-08-01T05:16:11;9.10;;;6.03;;
70924;SDS011;58577;52.410;13.242;2022-08-01T05:18:56;11.65;;;7.38;;
70924;SDS011;58577;52.410;13.242;2022-08-01T05:21:42;10.15;;;6.53;;
70924;SDS011;58577;52.410;13.242;2022-08-01T05:24:28;11.20;;;6.22;;
70924;SDS011;58577;52.410;13.242;2022-08-01T05:27:14;9.32;;;5.43;;
70924;SDS011;58577;52.410;13.242;2022-08-01T05:30:00;9.38;;;5.82;;
70924;SDS011;58577;52.410;13.242;2022-08-01T05:32:46;9.13;;;6.05;;
70924;SDS011;58577;52.410;13.242;2022-08-01T05:35:31;7.85;;;5.45;;
70924;SDS011;58577;52.410;13.242;2022-08-01T05:38:17;12.45;;;7.38;;
70924;SDS011;58577;52.410;13.242;2022-08-01T05:41:03;11.40;;;6.00;;
70924;SDS011;58577;52.410;13.242;2022-08-01T05:43:49;9.23;;;6.20;;
70924;SDS011;58577;52.410;13.242;2022-08-01T05:46:35;9.80;;;5.57;;
70924;SDS011;58577;52.410;13.242;2022-08-01T05:49:21;7.55;;;5.03;;
70924;SDS011;58577;52.410;13.242;2022-08-01T05:52:07;9.68;;;5.95;;
70924;SDS011;58577;52.410;13.242;2022-08-01T05:54:53;8.38;;;5.03;;
70924;SDS011;58577;52.410;13.242;2022-08-01T05:57:38;7.55;;;5.35;;
70924;SDS011;58577;52.410;13.242;2022-08-01T06:00:24;9.32;;;5.78;;
70924;SDS011;58577;52.410;13.242;2022-08-01T06:03:10;7.20;;;5.05;;
70924;SDS011;58577;52.410;13.242;2022-08-01T06:05:57;8.82;;;5.20;;
70924;SDS011;58577;52.410;13.242;2022-08-01T06:08:43;7.03;;;4.70;;
70924;SDS011;58577;52.410;13.242;2022-08-01T06:11:29;7.28;;;5.07;;
70924;SDS011;58577;52.410;13.242;2022-08-01T06:14:14;7.57;;;4.90;;
70924;SDS011;58577;52.410;13.242;2022-08-01T06:17:00;11.90;;;6.88;;
70924;SDS011;58577;52.410;13.242;2022-08-01T06:19:46;7.45;;;5.03;;
70924;SDS011;58577;52.410;13.242;2022-08-01T06:22:32;7.53;;;4.97;;
70924;SDS011;58577;52.410;13.242;2022-08-01T06:25:18;6.07;;;4.75;;
70924;SDS011;58577;52.410;13.242;2022-08-01T06:28:04;7.57;;;4.80;;
70924;SDS011;58577;52.410;13.242;2022-08-01T06:30:50;6.90;;;5.00;;
70924;SDS011;58577;52.410;13.242;2022-08-01T06:33:36;7.03;;;5.05;;
70924;SDS011;58577;52.410;13.242;2022-08-01T06:36:22;8.38;;;5.45;;
70924;SDS011;58577;52.410;13.242;2022-08-01T06:39:08;8.10;;;5.10;;
70924;SDS011;58577;52.410;13.242;2022-08-01T06:41:54;7.63;;;4.90;;
70924;SDS011;58577;52.410;13.242;2022-08-01T06:44:40;8.85;;;4.93;;
70924;SDS011;58577;52.410;13.242;2022-08-01T06:47:25;8.23;;;5.03;;
70924;SDS011;58577;52.410;13.242;2022-08-01T06:50:11;8.98;;;5.55;;
70924;SDS011;58577;52.410;13.242;2022-08-01T06:52:59;9.82;;;5.63;;
70924;SDS011;58577;52.410;13.242;2022-08-01T06:55:45;9.15;;;5.38;;
70924;SDS011;58577;52.410;13.242;2022-08-01T06:58:31;7.93;;;5.13;;
70924;SDS011;58577;52.410;13.242;2022-08-01T07:01:16;6.45;;;4.53;;
70924;SDS011;58577;52.410;13.242;2022-08-01T07:04:03;7.35;;;4.80;;
70924;SDS011;58577;52.410;13.242;2022-08-01T07:06:49;7.88;;;5.18;;
70924;SDS011;58577;52.410;13.242;2022-08-01T07:09:34;7.50;;;4.43;;
70924;SDS011;58577;52.410;13.242;2022-08-01T07:12:21;9.27;;;4.60;;
70924;SDS011;58577;52.410;13.242;2022-08-01T07:15:07;7.22;;;4.95;;
70924;SDS011;58577;52.410;13.242;2022-08-01T07:17:55;5.30;;;4.07;;
70924;SDS011;58577;52.410;13.242;2022-08-01T07:20:42;6.38;;;4.55;;
70924;SDS011;58577;52.410;13.242;2022-08-01T07:23:28;7.35;;;4.70;;
70924;SDS011;58577;52.410;13.242;2022-08-01T07:26:14;4.95;;;3.95;;
70924;SDS011;58577;52.410;13.242;2022-08-01T07:29:00;5.47;;;3.97;;
70924;SDS011;58577;52.410;13.242;2022-08-01T07:31:46;5.85;;;4.50;;
70924;SDS011;58577;52.410;13.242;2022-08-01T07:34:31;5.30;;;4.35;;
70924;SDS011;58577;52.410;13.242;2022-08-01T07:37:17;5.97;;;4.53;;
70924;SDS011;58577;52.410;13.242;2022-08-01T07:40:03;6.70;;;4.20;;
70924;SDS011;58577;52.410;13.242;2022-08-01T07:42:50;5.55;;;4.28;;
70924;SDS011;58577;52.410;13.242;2022-08-01T07:45:36;7.85;;;4.65;;
70924;SDS011;58577;52.410;13.242;2022-08-01T07:48:22;11.95;;;7.00;;
70924;SDS011;58577;52.410;13.242;2022-08-01T07:51:09;8.82;;;4.80;;
70924;SDS011;58577;52.410;13.242;2022-08-01T07:53:55;8.25;;;4.88;;
70924;SDS011;58577;52.410;13.242;2022-08-01T07:56:41;7.97;;;5.25;;
70924;SDS011;58577;52.410;13.242;2022-08-01T07:59:27;8.98;;;5.55;;
70924;SDS011;58577;52.410;13.242;2022-08-01T08:02:13;10.20;;;5.80;;
70924;SDS011;58577;52.410;13.242;2022-08-01T08:04:59;11.85;;;7.03;;
70924;SDS011;58577;52.410;13.242;2022-08-01T08:07:44;12.85;;;7.32;;
70924;SDS011;58577;52.410;13.242;2022-08-01T08:10:30;13.68;;;6.95;;
70924;SDS011;58577;52.410;13.242;2022-08-01T08:13:16;14.10;;;7.30;;
70924;SDS011;58577;52.410;13.242;2022-08-01T08:16:02;10.73;;;6.25;;
70924;SDS011;58577;52.410;13.242;2022-08-01T08:18:48;10.02;;;5.95;;
70924;SDS011;58577;52.410;13.242;2022-08-01T08:21:34;7.72;;;4.93;;
70924;SDS011;58577;52.410;13.242;2022-08-01T08:24:20;9.25;;;4.82;;
70924;SDS011;58577;52.410;13.242;2022-08-01T08:27:06;7.47;;;4.72;;
70924;SDS011;58577;52.410;13.242;2022-08-01T08:29:53;6.78;;;4.35;;
70924;SDS011;58577;52.410;13.242;2022-08-01T08:32:39;4.97;;;3.70;;
70924;SDS011;58577;52.410;13.242;2022-08-01T08:35:25;5.95;;;4.10;;
70924;SDS011;58577;52.410;13.242;2022-08-01T08:38:11;6.28;;;3.75;;
70924;SDS011;58577;52.410;13.242;2022-08-01T08:40:57;5.22;;;3.78;;
70924;SDS011;58577;52.410;13.242;2022-08-01T08:43:43;5.88;;;4.00;;
70924;SDS011;58577;52.410;13.242;2022-08-01T08:46:29;5.72;;;3.75;;
70924;SDS011;58577;52.410;13.242;2022-08-01T08:49:22;4.50;;;3.57;;
70924;SDS011;58577;52.410;13.242;2022-08-01T08:52:09;4.50;;;3.30;;
70924;SDS011;58577;52.410;13.242;2022-08-01T08:54:56;4.50;;;3.40;;
70924;SDS011;58577;52.410;13.242;2022-08-01T08:57:44;5.28;;;3.45;;
70924;SDS011;58577;52.410;13.242;2022-08-01T09:00:30;5.65;;;3.35;;
70924;SDS011;58577;52.410;13.242;2022-08-01T09:03:16;6.80;;;3.50;;
70924;SDS011;58577;52.410;13.242;2022-08-01T09:06:02;3.83;;;3.20;;
70924;SDS011;58577;52.410;13.242;2022-08-01T09:08:48;5.32;;;3.55;;
70924;SDS011;58577;52.410;13.242;2022-08-01T09:11:34;4.00;;;3.45;;
70924;SDS011;58577;52.410;13.242;2022-08-01T09:14:21;5.10;;;3.45;;
70924;SDS011;58577;52.410;13.242;2022-08-01T09:17:09;4.47;;;2.80;;
70924;SDS011;58577;52.410;13.242;2022-08-01T09:19:56;4.68;;;3.10;;
70924;SDS011;58577;52.410;13.242;2022-08-01T09:22:42;5.25;;;3.10;;
70924;SDS011;58577;52.410;13.242;2022-08-01T09:25:28;4.60;;;2.88;;
70924;SDS011;58577;52.410;13.242;2022-08-01T09:28:19;3.92;;;3.15;;
70924;SDS011;58577;52.410;13.242;2022-08-01T09:31:17;2.70;;;2.50;;
70924;SDS011;58577;52.410;13.242;2022-08-01T09:34:04;4.35;;;3.00;;
70924;SDS011;58577;52.410;13.242;2022-08-01T09:36:51;3.85;;;2.60;;
70924;SDS011;58577;52.410;13.242;2022-08-01T09:39:41;2.85;;;2.60;;
70924;SDS011;58577;52.410;13.242;2022-08-01T09:42:28;4.78;;;3.03;;
70924;SDS011;58577;52.410;13.242;2022-08-01T09:45:33;3.67;;;2.67;;
70924;SDS011;58577;52.410;13.242;2022-08-01T09:48:20;4.35;;;3.10;;
70924;SDS011;58577;52.410;13.242;2022-08-01T09:51:06;5.13;;;3.17;;
70924;SDS011;58577;52.410;13.242;2022-08-01T09:53:53;4.00;;;3.00;;
70924;SDS011;58577;52.410;13.242;2022-08-01T09:56:40;2.60;;;2.30;;
70924;SDS011;58577;52.410;13.242;2022-08-01T09:59:34;2.63;;;2.42;;
70924;SDS011;58577;52.410;13.242;2022-08-01T10:02:27;2.65;;;2.45;;
70924;SDS011;58577;52.410;13.242;2022-08-01T10:05:13;3.42;;;2.80;;
70924;SDS011;58577;52.410;13.242;2022-08-01T10:08:00;3.00;;;2.47;;
70924;SDS011;58577;52.410;13.242;2022-08-01T10:11:05;2.78;;;2.58;;
70924;SDS011;58577;52.410;13.242;2022-08-01T10:13:54;2.65;;;2.45;;
70924;SDS011;58577;52.410;13.242;2022-08-01T10:16:41;2.33;;;2.13;;
70924;SDS011;58577;52.410;13.242;2022-08-01T10:19:29;2.30;;;2.13;;
70924;SDS011;58577;52.410;13.242;2022-08-01T10:22:15;2.30;;;2.10;;
70924;SDS011;58577;52.410;13.242;2022-08-01T10:25:04;3.17;;;2.20;;
70924;SDS011;58577;52.410;13.242;2022-08-01T10:27:52;2.78;;;2.55;;
70924;SDS011;58577;52.410;13.242;2022-08-01T10:33:27;2.13;;;2.03;;
70924;SDS011;58577;52.410;13.242;2022-08-01T10:36:17;2.70;;;2.50;;
70924;SDS011;58577;52.410;13.242;2022-08-01T10:39:05;2.50;;;2.30;;
70924;SDS011;58577;52.410;13.242;2022-08-01T10:41:51;2.60;;;2.40;;
70924;SDS011;58577;52.410;13.242;2022-08-01T10:44:37;2.47;;;2.20;;
70924;SDS011;58577;52.410;13.242;2022-08-01T10:47:25;3.08;;;2.47;;
70924;SDS011;58577;52.410;13.242;2022-08-01T10:50:39;3.83;;;2.35;;
70924;SDS011;58577;52.410;13.242;2022-08-01T10:53:24;3.47;;;2.58;;
70924;SDS011;58577;52.410;13.242;2022-08-01T10:56:11;2.95;;;2.60;;
70924;SDS011;58577;52.410;13.242;2022-08-01T10:59:01;3.65;;;2.45;;
70924;SDS011;58577;52.410;13.242;2022-08-01T11:01:55;3.00;;;2.45;;
70924;SDS011;58577;52.410;13.242;2022-08-01T11:04:54;2.83;;;2.22;;
70924;SDS011;58577;52.410;13.242;2022-08-01T11:10:40;2.60;;;2.40;;
70924;SDS011;58577;52.410;13.242;2022-08-01T11:16:52;3.20;;;2.08;;
70924;SDS011;58577;52.410;13.242;2022-08-01T11:28:39;3.80;;;3.03;;
70924;SDS011;58577;52.410;13.242;2022-08-01T11:31:25;3.03;;;2.33;;
70924;SDS011;58577;52.410;13.242;2022-08-01T11:34:13;2.50;;;2.30;;
70924;SDS011;58577;52.410;13.242;2022-08-01T11:37:22;2.40;;;2.10;;
70924;SDS011;58577;52.410;13.242;2022-08-01T11:40:16;3.97;;;2.25;;
70924;SDS011;58577;52.410;13.242;2022-08-01T11:45:59;2.67;;;2.30;;
70924;SDS011;58577;52.410;13.242;2022-08-01T11:48:45;3.33;;;2.70;;
70924;SDS011;58577;52.410;13.242;2022-08-01T11:52:11;3.67;;;2.33;;
70924;SDS011;58577;52.410;13.242;2022-08-01T11:57:48;4.70;;;2.65;;
70924;SDS011;58577;52.410;13.242;2022-08-01T12:00:34;2.40;;;2.20;;
70924;SDS011;58577;52.410;13.242;2022-08-01T12:03:24;4.38;;;2.30;;
70924;SDS011;58577;52.410;13.242;2022-08-01T12:06:12;3.65;;;2.50;;
70924;SDS011;58577;52.410;13.242;2022-08-01T12:09:14;2.22;;;2.13;;
70924;SDS011;58577;52.410;13.242;2022-08-01T12:12:01;2.72;;;2.47;;
70924;SDS011;58577;52.410;13.242;2022-08-01T12:14:52;2.40;;;2.30;;
70924;SDS011;58577;52.410;13.242;2022-08-01T12:17:46;7.20;;;4.10;;
70924;SDS011;58577;52.410;13.242;2022-08-01T12:20:34;6.18;;;3.08;;
70924;SDS011;58577;52.410;13.242;2022-08-01T12:23:21;4.70;;;2.92;;
70924;SDS011;58577;52.410;13.242;2022-08-01T12:26:07;4.72;;;2.42;;
70924;SDS011;58577;52.410;13.242;2022-08-01T12:28:53;2.72;;;2.50;;
70924;SDS011;58577;52.410;13.242;2022-08-01T12:31:39;2.60;;;2.40;;
70924;SDS011;58577;52.410;13.242;2022-08-01T12:34:25;4.40;;;3.00;;
70924;SDS011;58577;52.410;13.242;2022-08-01T12:37:14;2.80;;;2.40;;
70924;SDS011;58577;52.410;13.242;2022-08-01T12:40:06;2.95;;;2.75;;
70924;SDS011;58577;52.410;13.242;2022-08-01T12:43:18;3.47;;;2.30;;
70924;SDS011;58577;52.410;13.242;2022-08-01T12:46:10;2.72;;;2.47;;
70924;SDS011;58577;52.410;13.242;2022-08-01T12:49:01;2.60;;;2.40;;
70924;SDS011;58577;52.410;13.242;2022-08-01T12:51:47;2.80;;;2.22;;
70924;SDS011;58577;52.410;13.242;2022-08-01T12:57:50;2.13;;;2.03;;
70924;SDS011;58577;52.410;13.242;2022-08-01T13:00:51;2.53;;;2.00;;
70924;SDS011;58577;52.410;13.242;2022-08-01T13:04:02;1.88;;;1.77;;
70924;SDS011;58577;52.410;13.242;2022-08-01T13:06:54;3.20;;;1.98;;
70924;SDS011;58577;52.410;13.242;2022-08-01T13:09:48;2.20;;;2.10;;
70924;SDS011;58577;52.410;13.242;2022-08-01T13:12:38;2.20;;;2.10;;
70924;SDS011;58577;52.410;13.242;2022-08-01T13:15:29;4.13;;;2.10;;
70924;SDS011;58577;52.410;13.242;2022-08-01T13:18:30;1.92;;;1.80;;
70924;SDS011;58577;52.410;13.242;2022-08-01T13:21:18;3.50;;;2.10;;
70924;SDS011;58577;52.410;13.242;2022-08-01T13:24:09;4.38;;;2.03;;
70924;SDS011;58577;52.410;13.242;2022-08-01T13:26:59;3.05;;;2.10;;
70924;SDS011;58577;52.410;13.242;2022-08-01T13:29:48;2.15;;;1.95;;
70924;SDS011;58577;52.410;13.242;2022-08-01T13:32:38;1.90;;;1.80;;
70924;SDS011;58577;52.410;13.242;2022-08-01T13:35:24;1.80;;;1.70;;
70924;SDS011;58577;52.410;13.242;2022-08-01T13:38:10;2.83;;;1.60;;
70924;SDS011;58577;52.410;13.242;2022-08-01T13:40:59;3.83;;;1.55;;
70924;SDS011;58577;52.410;13.242;2022-08-01T13:43:45;1.60;;;1.50;;
70924;SDS011;58577;52.410;13.242;2022-08-01T13:46:31;1.92;;;1.60;;
70924;SDS011;58577;52.410;13.242;2022-08-01T13:49:17;2.25;;;1.60;;
70924;SDS011;58577;52.410;13.242;2022-08-01T13:52:03;3.55;;;2.22;;
70924;SDS011;58577;52.410;13.242;2022-08-01T13:54:51;3.47;;;1.73;;
70924;SDS011;58577;52.410;13.242;2022-08-01T13:57:37;1.92;;;1.48;;
70924;SDS011;58577;52.410;13.242;2022-08-01T14:00:23;2.85;;;1.33;;
70924;SDS011;58577;52.410;13.242;2022-08-01T14:03:08;1.40;;;1.30;;
70924;SDS011;58577;52.410;13.242;2022-08-01T14:05:55;1.10;;;1.10;;
70924;SDS011;58577;52.410;13.242;2022-08-01T14:08:42;1.75;;;1.20;;
70924;SDS011;58577;52.410;13.242;2022-08-01T14:11:29;1.42;;;1.30;;
70924;SDS011;58577;52.410;13.242;2022-08-01T14:14:14;2.45;;;1.60;;
70924;SDS011;58577;52.410;13.242;2022-08-01T14:17:01;1.75;;;1.50;;
70924;SDS011;58577;52.410;13.242;2022-08-01T14:19:48;2.15;;;1.25;;
70924;SDS011;58577;52.410;13.242;2022-08-01T14:22:34;1.48;;;1.38;;
70924;SDS011;58577;52.410;13.242;2022-08-01T14:25:20;1.20;;;1.20;;
70924;SDS011;58577;52.410;13.242;2022-08-01T14:28:06;2.03;;;1.77;;
70924;SDS011;58577;52.410;13.242;2022-08-01T14:30:52;3.38;;;1.63;;
70924;SDS011;58577;52.410;13.242;2022-08-01T14:33:37;2.05;;;1.48;;
70924;SDS011;58577;52.410;13.242;2022-08-01T14:36:23;1.55;;;1.45;;
70924;SDS011;58577;52.410;13.242;2022-08-01T14:39:09;1.45;;;1.35;;
70924;SDS011;58577;52.410;13.242;2022-08-01T14:41:55;1.88;;;1.33;;
70924;SDS011;58577;52.410;13.242;2022-08-01T14:44:41;1.60;;;1.50;;
70924;SDS011;58577;52.410;13.242;2022-08-01T14:47:27;1.50;;;1.35;;
70924;SDS011;58577;52.410;13.242;2022-08-01T14:50:14;1.33;;;1.33;;
70924;SDS011;58577;52.410;13.242;2022-08-01T14:53:01;3.25;;;2.17;;
70924;SDS011;58577;52.410;13.242;2022-08-01T14:55:47;3.50;;;1.70;;
70924;SDS011;58577;52.410;13.242;2022-08-01T14:58:33;2.85;;;1.88;;
70924;SDS011;58577;52.410;13.242;2022-08-01T15:01:19;1.58;;;1.48;;
70924;SDS011;58577;52.410;13.242;2022-08-01T15:04:05;5.63;;;1.85;;
70924;SDS011;58577;52.410;13.242;2022-08-01T15:06:51;1.40;;;1.40;;
70924;SDS011;58577;52.410;13.242;2022-08-01T15:09:38;1.60;;;1.50;;
70924;SDS011;58577;52.410;13.242;2022-08-01T15:12:24;2.65;;;1.52;;
70924;SDS011;58577;52.410;13.242;2022-08-01T15:15:10;1.60;;;1.50;;
70924;SDS011;58577;52.410;13.242;2022-08-01T15:17:56;3.17;;;2.00;;
70924;SDS011;58577;52.410;13.242;2022-08-01T15:20:42;3.25;;;2.50;;
70924;SDS011;58577;52.410;13.242;2022-08-01T15:23:28;3.15;;;2.78;;
70924;SDS011;58577;52.410;13.242;2022-08-01T15:26:14;4.93;;;2.28;;
70924;SDS011;58577;52.410;13.242;2022-08-01T15:29:00;3.47;;;2.03;;
70924;SDS011;58577;52.410;13.242;2022-08-01T15:31:46;2.20;;;2.00;;
70924;SDS011;58577;52.410;13.242;2022-08-01T15:34:32;3.05;;;1.60;;
70924;SDS011;58577;52.410;13.242;2022-08-01T15:37:20;2.22;;;2.13;;
70924;SDS011;58577;52.410;13.242;2022-08-01T15:40:06;2.03;;;1.92;;
70924;SDS011;58577;52.410;13.242;2022-08-01T15:42:52;2.78;;;2.40;;
70924;SDS011;58577;52.410;13.242;2022-08-01T15:45:38;7.63;;;2.50;;
70924;SDS011;58577;52.410;13.242;2022-08-01T15:48:25;3.67;;;2.40;;
70924;SDS011;58577;52.410;13.242;2022-08-01T15:51:11;5.50;;;2.50;;
70924;SDS011;58577;52.410;13.242;2022-08-01T15:53:57;2.03;;;1.92;;
70924;SDS011;58577;52.410;13.242;2022-08-01T15:56:43;3.00;;;2.00;;
70924;SDS011;58577;52.410;13.242;2022-08-01T15:59:29;2.03;;;1.92;;
70924;SDS011;58577;52.410;13.242;2022-08-01T16:02:15;4.65;;;2.17;;
70924;SDS011;58577;52.410;13.242;2022-08-01T16:05:01;7.15;;;2.15;;
70924;SDS011;58577;52.410;13.242;2022-08-01T16:07:46;2.35;;;2.15;;
70924;SDS011;58577;52.410;13.242;2022-08-01T16:10:32;6.63;;;3.35;;
70924;SDS011;58577;52.410;13.242;2022-08-01T16:13:18;4.40;;;3.42;;
70924;SDS011;58577;52.410;13.242;2022-08-01T16:16:06;2.53;;;2.08;;
70924;SDS011;58577;52.410;13.242;2022-08-01T16:18:52;4.13;;;2.90;;
70924;SDS011;58577;52.410;13.242;2022-08-01T16:21:38;2.38;;;2.17;;
70924;SDS011;58577;52.410;13.242;2022-08-01T16:24:24;2.85;;;1.80;;
70924;SDS011;58577;52.410;13.242;2022-08-01T16:27:13;2.53;;;2.10;;
70924;SDS011;58577;52.410;13.242;2022-08-01T16:29:59;3.40;;;2.80;;
70924;SDS011;58577;52.410;13.242;2022-08-01T16:32:45;2.45;;;2.15;;
70924;SDS011;58577;52.410;13.242;2022-08-01T16:35:30;4.30;;;2.00;;
70924;SDS011;58577;52.410;13.242;2022-08-01T16:38:16;3.78;;;2.35;;
70924;SDS011;58577;52.410;13.242;2022-08-01T16:41:03;2.85;;;1.98;;
70924;SDS011;58577;52.410;13.242;2022-08-01T16:43:50;2.30;;;2.10;;
70924;SDS011;58577;52.410;13.242;2022-08-01T16:46:36;3.75;;;2.38;;
70924;SDS011;58577;52.410;13.242;2022-08-01T16:49:21;2.33;;;1.90;;
70924;SDS011;58577;52.410;13.242;2022-08-01T16:52:07;3.17;;;2.03;;
70924;SDS011;58577;52.410;13.242;2022-08-01T16:54:53;2.17;;;2.03;;
70924;SDS011;58577;52.410;13.242;2022-08-01T16:57:41;2.20;;;2.10;;
70924;SDS011;58577;52.410;13.242;2022-08-01T17:00:27;2.95;;;2.10;;
70924;SDS011;58577;52.410;13.242;2022-08-01T17:03:13;2.03;;;1.90;;
70924;SDS011;58577;52.410;13.242;2022-08-01T17:05:59;2.80;;;2.00;;
70924;SDS011;58577;52.410;13.242;2022-08-01T17:08:45;2.00;;;1.77;;
70924;SDS011;58577;52.410;13.242;2022-08-01T17:11:34;2.03;;;1.90;;
70924;SDS011;58577;52.410;13.242;2022-08-01T17:14:20;2.33;;;2.13;;
70924;SDS011;58577;52.410;13.242;2022-08-01T17:17:06;2.30;;;2.10;;